Pittsburgh, PA (15233)

9:27 PM EST on December 02, 2016 (GMT -0500)
Crafton Heights | | Change Station

Elev 1099 ft 40.44 °N, 80.05 °W | Updated 3 seconds ago

Overcast
Overcast
36.0 °F
Feels Like 36 °F
N
1.0
Wind Variable Wind from WSW
Gusts 0.0 mph

Today
High -- | Low -- °F
--% Chance of Precip.
Yesterday
High -- | Low -- °F
Precip. -- in
Pressure 30.18 in
Visibility 10.0 miles
Clouds Mostly Cloudy 1900 ft
Overcast 2500 ft
Windchill 36 °F
Dew Point 30 °F
Humidity 77%
Rainfall 0.00 in
Snow Depth Not available.
7:25 AM 4:53 PM
Waxing Crescent, 12% visible
METAR KAGC 030153Z 26012G17KT 10SM BKN019 OVC025 02/M02 A3013 RMK AO2 SLP219 T00221017 $
Pressure 30.18 in
Visibility 10.0 miles
Clouds Mostly Cloudy 1900 ft
Overcast 2500 ft
Windchill 36 °F
Dew Point 30 °F
Humidity 77%
Rainfall 0.00 in
Snow Depth Not available.
7:25 AM 4:53 PM
Waxing Crescent, 12% visible
METAR KAGC 030153Z 26012G17KT 10SM BKN019 OVC025 02/M02 A3013 RMK AO2 SLP219 T00221017 $

10-Day Weather Forecast

Almanac

Astronomy

Dec. 02, 2016 Rise Set
Actual Time
Civil Twilight
Nautical Twilight
Astronomical Twilight
Moon
Length of Visible Light
Length of Day
Tomorrow will be .
, % of the Moon is Illuminated

Today's Extremes

State Highs State Lows

Community

WunderPhotos

Upload Photos

1,955,396 photos uploaded!

WunderBlog® & News

Nearby

Air Quality

  Air Quality AQ Index Pollutant
Not available.

Snow Depth

Station Depth Elevation

Earthquake Activity

City Distance Mag. Time & Date
Minimum magnitude displayed is 2.5.

Coastal Water Temperatures

Place Temperature

Stations

Nearby Weather Stations

Station Location Temp. Windchill Dew Point Humidity Wind Precip. Elev Updated Type
                   

Watches & Warnings

There are currently no watches in effect.